Time;durP1;ratioP1;P1;durP2;ratioP2;P2;SDS_P1;SDS_P2;PMS_P1;PMS_P2;Temp;Humidity;BMP_temperature;BMP_pressure;BME280_temperature;BME280_humidity;BME280_pressure;Samples;Min_cycle;Max_cycle;Signal;HPM_P1;HPM_P2
2024/02/25 00:01:00;;;;;;;20.40;13.90;;;;;;;3.38;74.59;100352.22;103054;1298;24129;-61
2024/02/25 00:03:25;;;;;;;19.80;12.80;;;;;;;3.31;75.11;100347.38;102941;1295;22605;-63
2024/02/25 00:05:51;;;;;;;21.00;13.40;;;;;;;3.21;74.03;100345.92;102919;1314;23051;-63
2024/02/25 00:08:16;;;;;;;22.50;12.80;;;;;;;3.10;73.96;100346.52;102873;1307;26624;-63
2024/02/25 00:10:42;;;;;;;28.00;13.50;;;;;;;3.03;73.65;100346.46;102911;1311;22599;-62
2024/02/25 00:13:07;;;;;;;22.30;13.90;;;;;;;2.93;73.69;100340.58;102905;1292;24906;-62
2024/02/25 00:15:33;;;;;;;24.10;13.30;;;;;;;2.87;73.72;100340.34;102979;1311;23110;-63
2024/02/25 00:17:58;;;;;;;24.80;13.60;;;;;;;2.78;73.61;100333.94;102955;1308;22863;-62
2024/02/25 00:20:24;;;;;;;20.80;13.50;;;;;;;2.69;73.36;100335.89;102958;1298;25718;-61
2024/02/25 00:22:50;;;;;;;22.90;13.50;;;;;;;2.60;73.54;100338.02;102969;1314;22577;-62
2024/02/25 00:25:16;;;;;;;19.50;12.30;;;;;;;2.53;73.37;100340.48;102868;1294;22628;-62
2024/02/25 00:27:41;;;;;;;19.80;10.90;;;;;;;2.44;73.35;100344.27;102903;1311;23311;-62
2024/02/25 00:30:08;;;;;;;19.10;12.20;;;;;;;2.27;73.24;100345.77;102973;1307;26680;-62
2024/02/25 00:32:34;;;;;;;18.30;11.10;;;;;;;2.15;73.52;100345.44;107084;1314;22257;-61
2024/02/25 00:35:00;;;;;;;22.70;11.30;;;;;;;2.05;73.70;100344.12;106997;1298;22310;-63
2024/02/25 00:37:26;;;;;;;21.40;11.80;;;;;;;1.94;74.01;100347.55;107166;1313;22443;-63
2024/02/25 00:39:51;;;;;;;19.20;12.70;;;;;;;1.86;74.09;100352.69;107105;1314;22385;-63
2024/02/25 00:42:17;;;;;;;20.40;12.20;;;;;;;1.81;73.96;100352.61;103107;1292;26620;-61
2024/02/25 00:44:48;;;;;;;23.00;12.10;;;;;;;1.78;73.71;100357.33;102902;1295;23573;-62
2024/02/25 00:47:14;;;;;;;24.00;13.20;;;;;;;1.74;74.22;100362.52;106877;1315;22345;-63
2024/02/25 00:49:41;;;;;;;21.20;12.90;;;;;;;1.71;74.41;100369.61;106827;1315;22369;-63
2024/02/25 00:52:07;;;;;;;21.70;12.70;;;;;;;1.67;74.43;100366.50;106906;1314;22429;-62
2024/02/25 00:54:32;;;;;;;25.00;13.40;;;;;;;1.65;74.34;100367.48;107112;1295;22362;-62
2024/02/25 00:56:58;;;;;;;20.60;11.60;;;;;;;1.62;74.07;100376.10;104718;1311;22692;-63
2024/02/25 00:59:23;;;;;;;30.30;12.20;;;;;;;1.53;74.04;100373.60;103053;1298;23062;-62
2024/02/25 01:01:50;;;;;;;21.50;12.00;;;;;;;1.48;74.06;100369.61;103074;1307;22573;-62
2024/02/25 01:04:18;;;;;;;19.40;11.40;;;;;;;1.44;73.72;100380.92;102984;1314;22565;-63
2024/02/25 01:06:44;;;;;;;19.50;11.50;;;;;;;1.24;73.85;100388.38;102949;1314;22712;-62
2024/02/25 01:09:10;;;;;;;22.90;12.80;;;;;;;1.11;74.16;100379.30;102789;1313;24299;-63
2024/02/25 01:11:36;;;;;;;21.20;11.40;;;;;;;1.08;74.04;100369.23;102729;1314;23308;-64
2024/02/25 01:14:02;;;;;;;21.80;11.70;;;;;;;1.05;74.49;100370.21;102946;1314;22810;-63
2024/02/25 01:16:28;;;;;;;22.50;12.60;;;;;;;1.02;74.63;100373.23;102950;1292;24718;-60
2024/02/25 01:18:53;;;;;;;21.20;13.10;;;;;;;0.96;74.62;100365.14;102933;1308;22605;-61
2024/02/25 01:21:19;;;;;;;29.30;12.30;;;;;;;0.89;74.47;100365.52;102985;1308;22595;-60
2024/02/25 01:23:44;;;;;;;23.70;13.00;;;;;;;0.86;74.88;100366.48;102963;1310;25488;-61
2024/02/25 01:26:10;;;;;;;20.90;12.20;;;;;;;0.83;74.70;100357.60;102876;1298;22601;-62
2024/02/25 01:28:36;;;;;;;24.30;12.90;;;;;;;0.81;74.74;100357.72;102857;1307;23982;-62
2024/02/25 01:31:02;;;;;;;26.00;15.00;;;;;;;0.80;74.36;100356.20;103761;1310;23989;-62
2024/02/25 01:33:27;;;;;;;20.30;12.50;;;;;;;0.80;74.32;100360.93;103010;1308;22514;-61
2024/02/25 01:35:53;;;;;;;27.90;13.00;;;;;;;0.79;74.34;100368.05;102941;1291;22630;-62
2024/02/25 01:38:18;;;;;;;20.70;13.50;;;;;;;0.79;74.52;100364.31;103004;1313;25478;-62
2024/02/25 01:40:44;;;;;;;23.90;14.10;;;;;;;0.80;74.79;100362.63;102922;1308;22652;-62
2024/02/25 01:43:11;;;;;;;21.70;13.50;;;;;;;0.81;74.82;100365.20;102881;1313;25329;-60
2024/02/25 01:45:37;;;;;;;24.00;13.10;;;;;;;0.83;74.71;100366.92;102938;1298;22618;-62
2024/02/25 01:48:05;;;;;;;19.40;13.30;;;;;;;0.86;74.95;100365.97;107055;1307;22438;-63
2024/02/25 01:50:32;;;;;;;22.70;14.90;;;;;;;0.89;74.89;100365.86;106566;1301;22563;-63
2024/02/25 01:52:59;;;;;;;25.90;14.00;;;;;;;0.95;74.42;100364.79;102904;1315;23764;-63
2024/02/25 01:55:24;;;;;;;;;;;;;;;0.98;74.65;100363.82;102966;1292;22667;-63
2024/02/25 01:57:51;;;;;;;32.70;16.80;;;;;;;1.01;75.03;100361.50;102936;1308;25330;-63
2024/02/25 02:00:17;;;;;;;30.20;16.50;;;;;;;1.03;74.90;100355.60;102940;1307;22562;-63
2024/02/25 02:02:43;;;;;;;28.10;16.50;;;;;;;1.07;74.89;100354.63;102971;1313;22594;-59
2024/02/25 02:05:09;;;;;;;31.30;16.90;;;;;;;1.11;75.12;100350.62;103051;1314;23940;-63
2024/02/25 02:07:39;;;;;;;27.60;15.80;;;;;;;1.13;75.31;100350.31;105263;1295;22565;-63
2024/02/25 02:10:11;;;;;;;27.00;16.20;;;;;;;1.13;75.28;100346.42;102828;1304;22705;-62
2024/02/25 02:12:44;;;;;;;28.80;15.10;;;;;;;1.14;75.28;100341.52;102835;1315;22577;-62
2024/02/25 02:15:10;;;;;;;30.20;15.30;;;;;;;1.14;75.23;100344.39;102814;1308;24253;-62
2024/02/25 02:17:40;;;;;;;24.00;14.70;;;;;;;1.14;75.14;100341.85;102963;1292;24467;-63
2024/02/25 02:20:11;;;;;;;24.30;14.30;;;;;;;1.15;75.25;100338.47;102971;1298;22642;-63
2024/02/25 02:22:40;;;;;;;26.30;14.60;;;;;;;1.17;75.17;100334.77;102982;1308;22651;-63
2024/02/25 02:25:07;;;;;;;27.70;15.10;;;;;;;1.17;75.14;100334.60;102950;1305;22729;-63
2024/02/25 02:27:35;;;;;;;;;;;;;;;1.18;75.32;100334.11;107035;1295;23277;-63
2024/02/25 02:30:00;;;;;;;25.40;14.10;;;;;;;1.20;75.76;100331.93;103327;1313;25478;-63
2024/02/25 02:32:28;;;;;;;28.70;15.90;;;;;;;1.22;75.19;100332.15;102926;1310;23971;-63
2024/02/25 02:34:53;;;;;;;23.60;14.70;;;;;;;1.24;74.85;100327.77;102918;1307;22589;-62
2024/02/25 02:37:19;;;;;;;25.80;15.40;;;;;;;1.24;75.11;100333.04;103029;1294;25536;-63
2024/02/25 02:39:44;;;;;;;28.50;15.60;;;;;;;1.24;75.34;100333.52;103005;1314;22609;-63
2024/02/25 02:42:11;;;;;;;24.50;14.40;;;;;;;1.22;75.41;100333.16;102976;1314;25508;-63
2024/02/25 02:44:37;;;;;;;25.90;14.90;;;;;;;1.21;75.46;100329.77;102941;1309;23366;-63
2024/02/25 02:47:03;;;;;;;25.20;13.40;;;;;;;1.20;75.31;100324.30;102867;1292;23298;-62
2024/02/25 02:49:29;;;;;;;26.60;15.40;;;;;;;1.20;75.37;100324.97;102945;1314;23821;-62
2024/02/25 02:51:58;;;;;;;23.40;14.40;;;;;;;1.16;75.21;100323.21;102864;1311;26896;-62
2024/02/25 02:54:27;;;;;;;24.00;12.90;;;;;;;1.14;74.94;100328.11;102930;1307;22693;-62
2024/02/25 02:56:52;;;;;;;25.10;13.50;;;;;;;1.13;75.29;100327.91;95620;1292;5003650;-62
2024/02/25 02:59:20;;;;;;;21.90;13.70;;;;;;;1.10;75.44;100319.70;102905;1305;22637;-62
2024/02/25 03:01:48;;;;;;;25.60;14.50;;;;;;;1.09;75.61;100321.23;102960;1314;25395;-63
2024/02/25 03:04:14;;;;;;;33.60;14.50;;;;;;;1.08;75.45;100321.38;102936;1314;22582;-63
2024/02/25 03:06:39;;;;;;;24.10;15.30;;;;;;;1.07;75.57;100325.94;104017;1292;22331;-62
2024/02/25 03:09:05;;;;;;;26.70;15.40;;;;;;;1.07;75.64;100323.56;105937;1310;22619;-63
2024/02/25 03:11:30;;;;;;;26.50;15.70;;;;;;;1.07;75.72;100325.27;102855;1315;24891;-63
2024/02/25 03:13:56;;;;;;;28.30;16.00;;;;;;;1.07;75.28;100330.19;102843;1315;22621;-62
2024/02/25 03:16:21;;;;;;;22.00;14.30;;;;;;;1.06;75.57;100332.36;102823;1309;25700;-63
2024/02/25 03:18:46;;;;;;;24.70;12.50;;;;;;;0.97;75.17;100329.70;102999;1292;23696;-63
2024/02/25 03:21:12;;;;;;;28.70;14.70;;;;;;;0.84;75.50;100327.42;102933;1304;24301;-63
2024/02/25 03:23:37;;;;;;;25.90;15.60;;;;;;;0.74;75.84;100329.77;102921;1307;22597;-63
2024/02/25 03:26:03;;;;;;;26.40;14.80;;;;;;;0.67;75.54;100331.16;102972;1311;24404;-63
2024/02/25 03:28:29;;;;;;;28.60;15.00;;;;;;;0.60;75.55;100333.06;106974;1297;22299;-61
2024/02/25 03:30:54;;;;;;;23.20;13.80;;;;;;;0.53;75.54;100328.70;107005;1303;22340;-62
2024/02/25 03:33:20;;;;;;;24.90;14.00;;;;;;;0.49;75.25;100331.86;107030;1307;22306;-63
2024/02/25 03:35:45;;;;;;;22.40;14.50;;;;;;;0.48;75.61;100333.02;107071;1314;22250;-62
2024/02/25 03:38:11;;;;;;;24.90;15.50;;;;;;;0.46;75.66;100341.29;104040;1295;22615;-61
2024/02/25 03:40:36;;;;;;;28.20;14.80;;;;;;;0.43;75.66;100342.73;102958;1293;22614;-62
2024/02/25 03:43:02;;;;;;;28.80;14.80;;;;;;;0.37;75.74;100341.44;103038;1314;22571;-62
2024/02/25 03:45:28;;;;;;;25.40;14.50;;;;;;;0.32;75.68;100338.11;102988;1314;26672;-60
2024/02/25 03:47:53;;;;;;;28.20;14.50;;;;;;;0.28;75.63;100334.98;102935;1307;24020;-60
2024/02/25 03:50:19;;;;;;;32.40;15.40;;;;;;;0.26;75.61;100333.41;102723;1314;22572;-62
2024/02/25 03:52:45;;;;;;;29.40;15.40;;;;;;;0.24;75.73;100335.58;102735;1315;25894;-63
2024/02/25 03:55:10;;;;;;;24.20;13.10;;;;;;;0.20;75.65;100333.95;102710;1315;22647;-60
2024/02/25 03:57:38;;;;;;;25.90;14.40;;;;;;;0.14;75.38;100332.30;102845;1292;24493;-60
2024/02/25 04:00:08;;;;;;;25.60;14.80;;;;;;;0.06;75.63;100332.30;107143;1313;22999;-62
2024/02/25 04:02:33;;;;;;;29.90;15.10;;;;;;;0.02;75.79;100330.36;104356;1308;22562;-63
2024/02/25 04:04:59;;;;;;;29.90;15.00;;;;;;;0.01;75.41;100323.54;102870;1313;25419;-63
2024/02/25 04:07:25;;;;;;;24.50;14.60;;;;;;;0.00;75.48;100320.34;102978;1308;23816;-61
2024/02/25 04:09:50;;;;;;;30.90;14.30;;;;;;;-0.01;75.77;100318.79;102925;1294;22561;-62
2024/02/25 04:12:16;;;;;;;26.20;13.90;;;;;;;-0.04;75.32;100316.86;102930;1307;22580;-62
2024/02/25 04:14:42;;;;;;;26.70;14.90;;;;;;;-0.07;75.63;100313.40;102973;1307;23992;-64
2024/02/25 04:17:07;;;;;;;23.70;13.30;;;;;;;-0.12;75.60;100310.92;102936;1307;22924;-61
2024/02/25 04:19:32;;;;;;;25.40;13.80;;;;;;;-0.17;75.48;100308.45;102922;1311;26982;-63
2024/02/25 04:21:58;;;;;;;23.50;12.20;;;;;;;-0.19;75.64;100307.70;102985;1298;22581;-63
2024/02/25 04:24:23;;;;;;;25.10;14.60;;;;;;;-0.24;75.77;100304.73;102862;1314;24092;-61
2024/02/25 04:26:49;;;;;;;23.90;13.50;;;;;;;-0.27;75.78;100305.67;103004;1313;22650;-63
2024/02/25 04:29:14;;;;;;;27.10;14.10;;;;;;;-0.33;75.53;100300.78;102928;1295;22589;-63
2024/02/25 04:31:42;;;;;;;28.40;14.20;;;;;;;-0.44;75.51;100301.91;102840;1314;24285;-62
2024/02/25 04:34:08;;;;;;;21.80;13.00;;;;;;;-0.49;75.53;100308.04;103482;1311;22695;-63
2024/02/25 04:36:33;;;;;;;23.70;12.90;;;;;;;-0.52;75.50;100313.56;102874;1314;22602;-61
2024/02/25 04:38:59;;;;;;;21.00;12.80;;;;;;;-0.53;75.69;100314.40;102826;1294;22601;-63
2024/02/25 04:41:24;;;;;;;20.20;12.10;;;;;;;-0.52;76.23;100313.73;102815;1310;24291;-62
2024/02/25 04:43:50;;;;;;;22.50;13.30;;;;;;;-0.55;76.22;100313.86;102907;1313;22578;-62
2024/02/25 04:46:15;;;;;;;25.20;13.00;;;;;;;-0.57;76.20;100317.86;102876;1310;22633;-63
2024/02/25 04:48:41;;;;;;;22.50;13.50;;;;;;;-0.59;76.36;100316.11;102952;1291;24308;-64
2024/02/25 04:51:06;;;;;;;25.70;14.40;;;;;;;-0.61;76.13;100315.39;102995;1314;25830;-62
2024/02/25 04:53:32;;;;;;;27.80;15.00;;;;;;;-0.63;75.92;100315.84;102902;1308;22661;-62
2024/02/25 04:55:57;;;;;;;39.30;15.60;;;;;;;-0.70;75.88;100315.02;102870;1292;25630;-62
2024/02/25 04:58:22;;;;;;;31.20;14.10;;;;;;;-0.71;75.73;100312.27;102956;1314;22565;-62
2024/02/25 05:00:48;;;;;;;23.00;13.50;;;;;;;-0.71;76.35;100311.59;103030;1295;22593;-62
2024/02/25 05:03:13;;;;;;;25.70;13.90;;;;;;;-0.73;76.10;100316.63;103034;1313;25174;-62
2024/02/25 05:05:39;;;;;;;25.00;13.30;;;;;;;-0.75;76.22;100318.61;103069;1312;25428;-63
2024/02/25 05:08:04;;;;;;;23.30;14.50;;;;;;;-0.78;76.40;100319.55;103064;1298;22580;-63
2024/02/25 05:10:30;;;;;;;24.90;13.30;;;;;;;-0.83;76.30;100319.08;102899;1298;23067;-63
2024/02/25 05:12:55;;;;;;;29.40;13.70;;;;;;;-0.88;76.26;100317.95;102909;1310;22562;-60
2024/02/25 05:15:21;;;;;;;25.80;13.40;;;;;;;-0.89;76.00;100324.86;102771;1313;23075;-60
2024/02/25 05:17:47;;;;;;;24.50;13.80;;;;;;;-0.88;75.80;100325.38;103068;1314;22843;-63
2024/02/25 05:20:13;;;;;;;20.40;12.70;;;;;;;-0.87;75.84;100321.69;103059;1292;25587;-62
2024/02/25 05:22:38;;;;;;;25.80;14.10;;;;;;;-0.87;76.14;100323.20;103054;1311;22997;-63
2024/02/25 05:25:04;;;;;;;23.50;13.00;;;;;;;-0.90;76.44;100327.53;102943;1308;22592;-63
2024/02/25 05:27:35;;;;;;;23.40;13.20;;;;;;;-0.92;76.56;100325.62;103015;1307;22675;-61
2024/02/25 05:30:03;;;;;;;24.20;14.00;;;;;;;-0.94;76.57;100319.63;104563;1295;22559;-63
2024/02/25 05:32:29;;;;;;;23.40;13.30;;;;;;;-0.95;76.67;100313.88;102679;1300;26130;-62
2024/02/25 05:34:55;;;;;;;29.20;15.10;;;;;;;-0.95;76.77;100313.69;102867;1314;23836;-63
2024/02/25 05:37:22;;;;;;;24.00;13.70;;;;;;;-0.95;76.86;100312.52;102922;1307;25380;-63
2024/02/25 05:39:48;;;;;;;23.30;12.80;;;;;;;-0.93;76.17;100310.87;102902;1295;22576;-61
2024/02/25 05:42:14;;;;;;;24.30;13.80;;;;;;;-0.91;76.64;100309.73;102961;1314;25285;-60
2024/02/25 05:44:40;;;;;;;23.20;13.90;;;;;;;-0.92;76.56;100306.32;102974;1290;22580;-62
2024/02/25 05:47:06;;;;;;;26.30;14.10;;;;;;;-0.90;76.82;100310.78;103023;1313;22585;-64
2024/02/25 05:49:31;;;;;;;27.50;14.80;;;;;;;-0.88;77.07;100311.69;102970;1304;26509;-63
2024/02/25 05:51:57;;;;;;;26.90;14.50;;;;;;;-0.83;76.83;100313.33;102831;1297;22929;-63
2024/02/25 05:54:22;;;;;;;28.00;14.30;;;;;;;-0.81;76.65;100313.90;102992;1310;26569;-64
2024/02/25 05:56:48;;;;;;;28.80;14.40;;;;;;;-0.77;76.92;100315.52;102926;1311;22702;-64
2024/02/25 05:59:14;;;;;;;32.60;15.80;;;;;;;-0.73;76.73;100319.33;102898;1307;22709;-64
2024/02/25 06:01:46;;;;;;;26.80;15.50;;;;;;;-0.71;76.66;100317.52;102962;1307;23108;-61
2024/02/25 06:04:13;;;;;;;25.00;16.00;;;;;;;-0.65;76.79;100314.46;103809;1310;22890;-62
2024/02/25 06:06:39;;;;;;;31.40;18.20;;;;;;;-0.52;77.11;100317.28;102971;1308;22690;-62
2024/02/25 06:09:05;;;;;;;28.60;17.90;;;;;;;-0.45;77.39;100310.16;102985;1314;26803;-63
2024/02/25 06:11:31;;;;;;;28.20;15.40;;;;;;;-0.43;77.30;100306.99;102973;1306;22588;-62
2024/02/25 06:13:56;;;;;;;29.30;16.90;;;;;;;-0.42;77.19;100309.05;102896;1311;25392;-63
2024/02/25 06:16:22;;;;;;;25.50;15.10;;;;;;;-0.42;77.32;100312.96;102901;1314;25299;-63
2024/02/25 06:18:48;;;;;;;30.50;15.10;;;;;;;-0.39;77.16;100314.38;102957;1304;22688;-63
2024/02/25 06:21:14;;;;;;;27.10;15.30;;;;;;;-0.37;77.04;100315.09;102921;1295;22682;-65
2024/02/25 06:23:40;;;;;;;25.30;15.70;;;;;;;-0.36;77.13;100318.68;103000;1314;22623;-63
2024/02/25 06:26:06;;;;;;;29.60;14.50;;;;;;;-0.34;77.16;100326.02;103062;1300;22591;-64
2024/02/25 06:28:32;;;;;;;25.40;15.10;;;;;;;-0.31;77.20;100325.73;102969;1308;23379;-63
2024/02/25 06:30:58;;;;;;;24.90;15.40;;;;;;;-0.29;77.10;100323.07;102957;1294;22578;-62
2024/02/25 06:33:23;;;;;;;29.70;17.70;;;;;;;-0.26;77.29;100322.80;102898;1314;27318;-64
2024/02/25 06:35:50;;;;;;;27.80;15.80;;;;;;;-0.23;77.36;100325.91;102815;1314;22758;-63
2024/02/25 06:38:15;;;;;;;;;;;;;;;-0.19;77.49;100327.70;102897;1299;22546;-63
2024/02/25 06:40:41;;;;;;;23.80;15.40;;;;;;;-0.16;77.79;100323.36;102915;1292;26428;-64
2024/02/25 06:43:12;;;;;;;26.70;16.40;;;;;;;-0.11;77.68;100323.83;103027;1313;25308;-63
2024/02/25 06:45:38;;;;;;;22.10;15.50;;;;;;;-0.03;77.58;100329.59;102893;1308;22697;-64
2024/02/25 06:48:04;;;;;;;26.80;16.30;;;;;;;0.00;77.54;100329.65;107114;1313;22380;-63
2024/02/25 06:50:29;;;;;;;25.70;15.70;;;;;;;0.02;77.64;100325.77;105904;1297;26770;-64
2024/02/25 06:52:55;;;;;;;26.60;15.60;;;;;;;0.07;77.21;100320.61;102934;1295;22586;-64
2024/02/25 06:55:21;;;;;;;24.00;16.20;;;;;;;0.13;77.56;100320.58;103054;1307;22559;-63
2024/02/25 06:57:46;;;;;;;25.70;15.20;;;;;;;0.21;77.48;100322.79;102980;1308;23489;-64
2024/02/25 07:00:12;;;;;;;24.80;15.30;;;;;;;0.28;77.77;100321.93;102934;1307;23827;-64
2024/02/25 07:02:38;;;;;;;24.90;15.20;;;;;;;0.38;77.88;100321.11;102974;1300;23052;-63
2024/02/25 07:05:04;;;;;;;24.10;15.20;;;;;;;0.50;78.07;100323.04;102938;1308;22688;-64
2024/02/25 07:07:30;;;;;;;22.50;16.00;;;;;;;0.65;78.18;100319.77;102978;1313;26031;-63
2024/02/25 07:09:57;;;;;;;24.30;16.20;;;;;;;0.82;78.00;100318.55;103014;1313;22565;-63
2024/02/25 07:12:24;;;;;;;26.60;17.00;;;;;;;0.96;77.97;100317.47;106578;1298;22583;-63
2024/02/25 07:14:49;;;;;;;25.20;15.60;;;;;;;1.08;77.98;100315.42;102871;1313;22617;-63
2024/02/25 07:17:15;;;;;;;26.20;17.70;;;;;;;1.23;78.13;100315.86;102954;1314;22842;-64
2024/02/25 07:19:44;;;;;;;35.70;20.80;;;;;;;1.42;78.34;100307.70;102954;1314;25798;-63
2024/02/25 07:22:10;;;;;;;40.40;23.80;;;;;;;1.63;78.25;100303.91;103204;1295;22677;-63
2024/02/25 07:24:37;;;;;;;45.40;26.70;;;;;;;1.80;78.35;100308.94;102885;1308;23188;-63
2024/02/25 07:27:02;;;;;;;;;;;;;;;2.00;78.49;100310.39;103082;1307;22581;-63
2024/02/25 07:29:28;;;;;;;48.80;29.20;;;;;;;2.26;79.14;100307.32;103020;1314;22607;-63
2024/02/25 07:31:54;;;;;;;44.70;27.50;;;;;;;2.54;79.16;100306.46;102975;1293;23438;-64
2024/02/25 07:34:20;;;;;;;45.40;26.80;;;;;;;2.78;79.37;100299.05;102915;1307;22684;-62
2024/02/25 07:36:46;;;;;;;48.40;30.00;;;;;;;3.13;79.16;100296.31;102771;1316;24505;-63
2024/02/25 07:39:11;;;;;;;48.60;30.60;;;;;;;3.30;81.05;100290.83;102927;1308;22573;-64
2024/02/25 07:41:37;;;;;;;46.10;27.80;;;;;;;3.40;80.52;100289.71;102798;1314;22557;-61
2024/02/25 07:44:03;;;;;;;51.70;29.10;;;;;;;3.56;81.99;100294.44;102930;1297;25388;-63
2024/02/25 07:46:29;;;;;;;41.10;27.40;;;;;;;3.69;81.43;100296.38;103042;1310;22573;-63
2024/02/25 07:48:55;;;;;;;42.20;27.80;;;;;;;3.97;81.20;100289.73;102984;1313;22555;-63
2024/02/25 07:51:22;;;;;;;41.00;26.70;;;;;;;4.28;81.25;100285.27;103037;1290;23605;-62
2024/02/25 07:53:48;;;;;;;;;;;;;;;4.57;81.99;100280.41;102960;1291;25475;-62
2024/02/25 07:56:20;;;;;;;42.10;26.60;;;;;;;4.69;81.55;100274.10;102860;1308;22704;-63
2024/02/25 07:58:46;;;;;;;50.10;27.70;;;;;;;4.78;81.14;100276.52;103656;1310;22594;-61
2024/02/25 08:01:12;;;;;;;41.60;27.20;;;;;;;4.89;80.71;100270.39;102889;1301;22581;-63
2024/02/25 08:03:37;;;;;;;37.90;26.60;;;;;;;5.04;80.89;100269.21;103044;1295;24288;-63
2024/02/25 08:06:04;;;;;;;41.30;26.90;;;;;;;5.31;80.56;100268.17;102946;1313;23490;-63
2024/02/25 08:08:29;;;;;;;40.40;26.50;;;;;;;5.54;80.61;100263.88;103068;1313;23861;-63
2024/02/25 08:10:55;;;;;;;42.50;26.70;;;;;;;5.73;80.46;100264.18;102916;1301;22906;-62
2024/02/25 08:13:20;;;;;;;34.10;23.50;;;;;;;6.19;80.14;100267.99;102948;1306;24207;-64
2024/02/25 08:15:46;;;;;;;40.80;25.10;;;;;;;6.54;79.32;100266.80;102881;1307;22740;-63
2024/02/25 08:18:31;;;;;;;35.10;24.80;;;;;;;6.69;79.17;100261.23;102953;1308;24119;-63
2024/02/25 08:20:57;;;;;;;31.90;23.60;;;;;;;6.88;79.32;100257.66;102882;1307;26268;-63
2024/02/25 08:23:22;;;;;;;38.30;24.60;;;;;;;7.12;79.00;100250.13;103175;1295;25316;-63
2024/02/25 08:25:51;;;;;;;34.20;24.00;;;;;;;7.49;78.17;100247.05;103144;1313;24248;-62
2024/02/25 08:28:39;;;;;;;32.80;21.90;;;;;;;7.87;77.84;100243.90;100914;1301;5003576;-63
2024/02/25 08:31:05;;;;;;;34.50;23.10;;;;;;;8.19;76.73;100243.52;103881;1299;24269;-63
2024/02/25 08:33:51;;;;;;;30.80;21.90;;;;;;;8.64;77.10;100241.55;103437;1306;22563;-61
2024/02/25 08:36:37;;;;;;;34.10;21.70;;;;;;;8.96;75.69;100239.67;103127;1314;22752;-62
2024/02/25 08:39:05;;;;;;;30.20;21.10;;;;;;;9.06;75.73;100239.36;102948;1302;22569;-62
2024/02/25 08:41:30;;;;;;;29.30;21.30;;;;;;;9.10;75.50;100240.66;106910;1308;22458;-62
2024/02/25 08:43:56;;;;;;;29.30;21.30;;;;;;;9.26;75.69;100234.73;107160;1294;22411;-61
2024/02/25 08:46:22;;;;;;;33.70;22.50;;;;;;;9.28;76.27;100227.13;107155;1307;22435;-62
2024/02/25 08:48:47;;;;;;;32.60;21.80;;;;;;;9.30;77.07;100228.98;107174;1306;22321;-62
2024/02/25 08:51:13;;;;;;;33.20;22.50;;;;;;;9.43;76.29;100231.50;107209;1307;22392;-62
2024/02/25 08:53:46;;;;;;;30.00;22.30;;;;;;;9.56;76.35;100227.48;107131;1299;22490;-62
2024/02/25 08:56:12;;;;;;;32.50;22.60;;;;;;;9.79;74.50;100226.01;107073;1304;22311;-61
2024/02/25 08:58:37;;;;;;;33.00;22.20;;;;;;;9.93;76.32;100225.23;103849;1308;24595;-63
2024/02/25 09:01:03;;;;;;;32.20;22.30;;;;;;;10.21;74.59;100225.34;103062;1306;22568;-62
2024/02/25 09:03:28;;;;;;;31.80;22.80;;;;;;;10.32;74.81;100226.33;103195;1310;22604;-60
2024/02/25 09:05:54;;;;;;;28.30;20.10;;;;;;;10.60;74.88;100223.29;103965;1299;22786;-61
2024/02/25 09:08:22;;;;;;;31.70;21.30;;;;;;;10.74;75.74;100211.95;103483;1311;25749;-63
2024/02/25 09:10:48;;;;;;;32.90;21.90;;;;;;;10.74;75.37;100204.02;103372;1307;22514;-61
2024/02/25 09:13:13;;;;;;;31.50;21.60;;;;;;;10.72;75.13;100202.86;103352;1298;23334;-62
2024/02/25 09:15:39;;;;;;;25.30;19.20;;;;;;;10.82;74.84;100201.23;103423;1292;25408;-62
2024/02/25 09:18:06;;;;;;;27.30;20.90;;;;;;;10.87;75.37;100206.63;103039;1301;23955;-59
2024/02/25 09:20:33;;;;;;;25.50;19.80;;;;;;;10.96;75.20;100200.68;103076;1308;25403;-60
2024/02/25 09:23:01;;;;;;;28.40;20.20;;;;;;;11.07;75.15;100198.88;102980;1307;22592;-60
2024/02/25 09:25:33;;;;;;;28.80;20.80;;;;;;;10.96;74.48;100195.17;103321;1295;22585;-61
2024/02/25 09:27:59;;;;;;;28.50;20.30;;;;;;;11.13;75.43;100190.11;104767;1311;24314;-56
2024/02/25 09:30:25;;;;;;;27.50;20.50;;;;;;;11.72;76.27;100186.28;103210;1313;25082;-60
2024/02/25 09:32:53;;;;;;;25.10;19.50;;;;;;;12.27;75.96;100183.66;103036;1308;22521;-60
2024/02/25 09:35:19;;;;;;;24.60;19.00;;;;;;;12.47;75.52;100184.61;103047;1299;24198;-59
2024/02/25 09:37:45;;;;;;;24.10;18.20;;;;;;;12.45;74.11;100180.70;107081;1311;22264;-60
2024/02/25 09:40:11;;;;;;;25.60;19.20;;;;;;;12.41;74.01;100177.90;107002;1308;22252;-59
2024/02/25 09:42:37;;;;;;;26.60;18.80;;;;;;;12.38;74.38;100176.27;104157;1292;22574;-59
2024/02/25 09:45:03;;;;;;;25.60;18.30;;;;;;;12.28;73.94;100172.77;103069;1299;24234;-57
2024/02/25 09:47:29;;;;;;;25.10;18.50;;;;;;;12.11;73.67;100168.43;103060;1304;22705;-59
2024/02/25 09:49:55;;;;;;;29.10;17.50;;;;;;;12.00;74.51;100164.97;103153;1312;23953;-58
2024/02/25 09:52:22;;;;;;;22.90;17.10;;;;;;;11.81;74.06;100163.08;102984;1313;22914;-60
2024/02/25 09:54:49;;;;;;;24.40;17.00;;;;;;;11.51;74.35;100162.69;102911;1292;22744;-64
2024/02/25 09:57:15;;;;;;;26.90;17.50;;;;;;;11.36;74.53;100162.27;102798;1307;26300;-59
2024/02/25 09:59:43;;;;;;;25.50;18.60;;;;;;;11.37;74.76;100154.48;102827;1308;24463;-58
2024/02/25 10:02:08;;;;;;;25.00;18.80;;;;;;;11.41;74.67;100154.86;102854;1308;22580;-58
2024/02/25 10:04:36;;;;;;;29.30;19.10;;;;;;;11.34;74.37;100151.79;102785;1311;22585;-59
2024/02/25 10:07:02;;;;;;;25.90;17.00;;;;;;;11.15;74.00;100150.90;107055;1300;22253;-60
2024/02/25 10:09:40;;;;;;;28.00;19.20;;;;;;;11.06;74.11;100145.27;107130;1308;22448;-58
2024/02/25 10:12:06;;;;;;;21.70;17.00;;;;;;;10.84;73.39;100144.62;107199;1308;22252;-59
2024/02/25 10:14:35;;;;;;;24.00;18.10;;;;;;;10.65;73.36;100144.91;106998;1311;215746;-60
2024/02/25 10:17:03;;;;;;;25.10;18.10;;;;;;;10.58;73.78;100146.63;107104;1295;22295;-58
2024/02/25 10:19:30;;;;;;;27.60;18.30;;;;;;;10.66;74.11;100141.80;106991;1301;22283;-59
2024/02/25 10:22:16;;;;;;;25.60;17.50;;;;;;;10.67;73.35;100142.11;106995;1305;22386;-60
2024/02/25 10:24:44;;;;;;;25.00;16.20;;;;;;;10.57;72.85;100140.96;107116;1304;22335;-60
2024/02/25 10:27:14;;;;;;;25.40;17.60;;;;;;;10.48;72.98;100137.73;107073;1305;22565;-57
2024/02/25 10:29:50;;;;;;;28.60;18.60;;;;;;;10.43;72.92;100135.95;107057;1309;22558;-56
2024/02/25 10:32:25;;;;;;;24.50;18.00;;;;;;;10.32;72.74;100130.55;106776;1311;321655;-58
2024/02/25 10:34:52;;;;;;;25.60;16.90;;;;;;;10.33;72.95;100127.44;107171;1308;22367;-56
2024/02/25 10:37:30;;;;;;;;;;;;;;;10.31;72.93;100120.77;107236;1295;22611;-56
2024/02/25 10:39:59;;;;;;;24.90;18.00;;;;;;;10.36;72.99;100120.48;106445;1313;22901;-57
2024/02/25 10:42:26;;;;;;;25.10;17.80;;;;;;;10.48;72.80;100115.66;107321;1313;22239;-57
2024/02/25 10:45:16;;;;;;;26.60;17.50;;;;;;;10.54;72.44;100116.73;107354;1309;22229;-57
2024/02/25 10:47:46;;;;;;;28.80;18.00;;;;;;;10.58;71.76;100112.69;107164;1305;22252;-55
2024/02/25 10:50:20;;;;;;;29.80;18.40;;;;;;;10.56;72.22;100113.23;107194;1304;22295;-58
2024/02/25 10:52:58;;;;;;;;;;;;;;;;;;;;;
2024/02/25 10:55:25;;;;;;;27.50;17.80;;;;;;;10.66;72.19;100106.29;107178;1314;22245;-58
2024/02/25 10:57:52;;;;;;;27.00;18.40;;;;;;;10.79;72.80;100104.92;107234;1294;22299;-57
2024/02/25 11:00:18;;;;;;;23.50;17.60;;;;;;;10.93;72.40;100101.95;107324;1308;23259;-57
2024/02/25 11:02:53;;;;;;;30.60;19.30;;;;;;;10.94;71.89;100104.18;107309;1313;22263;-55
2024/02/25 11:05:19;;;;;;;25.70;18.70;;;;;;;10.94;71.76;100103.48;107043;1313;22459;-56
2024/02/25 11:07:46;;;;;;;22.80;17.80;;;;;;;10.85;71.70;100103.03;107102;1295;23010;-56